Hovedside
METAR-TAF:

METAR-TAF

Lufthavner :

Såtenäs, Sverige

breddegrad: 58-26N, lengdegrad: 012-42E, høyde over havet: 54 m

Gjeldene værobservasjon

Denne rapporten ble laget for 15 minutter siden, klokken 12:20 UTC
Vind 10 kt fra Vest-sørvest
Temperatur 6°C
Luftfuktighet 61%
Trykk 1006 hPa
Sikt 10 km eller mer
ingen skyer under 1500 m og ingen bygeskyer

METAR: ESIB 241220Z 24010KT CAVOK 06/M01 Q1006

Tid: 13:35 (12:35 UTC)

Varsel

Denne rapporten ble laget for 1 time og 35 minutter siden, klokken 11:00 UTC
Varsel gyldig fra 24. klokken 12 UTC til 24. klokken 16 UTC
Vind 10 kt fra Vest
Sikt 10 km eller mer
ingen skyer under 1500 m og ingen bygeskyer
Blir
fra 24. klokken 12 UTC til 24. klokken 13 UTC
Vind 10 kt fra Sørvest med vindkast opp mot 18 kt

TAF: ESIB 241100Z 2412/2416 26010KT CAVOK BECMG 2412/2413 23010G18KT RMK MIL

Værobservasjoner og værvarsel for over 4000 flyplasser (METAR- og TAF-rapporter).

Tilgjengelige stasjoner er representert av de røde og gule prikkene på kartet.

Hold musepekeren over prikken for å se navnet på stasjonen.

Klikk så for å se værobservasjoner og -varsler.

For å forandre kartet kan du klikke på den grønne knappen med svart kryss for å zoome inn, på den grønne knappen med strek for å zoome ut, eller på de grønne pilene for å se tilstøtende kart.


METAR-TAF: